Time;durP1;ratioP1;P1;durP2;ratioP2;P2;SDS_P1;SDS_P2;PMS_P1;PMS_P2;Temp;Humidity;BMP_temperature;BMP_pressure;BME280_temperature;BME280_humidity;BME280_pressure;Samples;Min_cycle;Max_cycle;Signal;HPM_P1;HPM_P2
2022/06/17 00:01:35;;;;;;;5.57;1.40;;;;;;;17.46;54.18;101062.88;5072385;28;20028;-84
2022/06/17 00:04:01;;;;;;;2.53;1.13;;;;;;;17.52;53.75;101064.19;5072522;28;20025;-84
2022/06/17 00:06:32;;;;;;;;;;;;;;;17.63;53.00;101061.66;5072940;28;20075;-84
2022/06/17 00:08:57;;;;;;;3.25;1.30;;;;;;;17.65;53.53;101057.41;5072401;28;19916;-84
2022/06/17 00:11:27;;;;;;;2.80;1.23;;;;;;;17.70;53.17;101042.59;5075998;28;20043;-85
2022/06/17 00:13:52;;;;;;;4.10;1.45;;;;;;;17.66;53.49;101036.19;5076457;28;20032;-86
2022/06/17 00:16:19;;;;;;;3.35;1.30;;;;;;;17.51;53.75;101039.78;5076734;28;20489;-85
2022/06/17 00:18:45;;;;;;;5.55;1.60;;;;;;;17.34;54.60;101029.97;5076578;28;20044;-85
2022/06/17 00:21:23;;;;;;;3.88;2.00;;;;;;;17.21;55.49;101037.53;5076087;28;20032;-85
2022/06/17 00:23:49;;;;;;;2.97;1.48;;;;;;;17.18;55.33;101037.44;5076713;28;20040;-84
2022/06/17 00:26:16;;;;;;;3.58;1.75;;;;;;;17.10;55.92;101042.75;5076213;28;20028;-84
2022/06/17 00:28:41;;;;;;;3.17;1.17;;;;;;;16.80;58.40;101031.44;5076362;28;20068;-85
2022/06/17 00:31:07;;;;;;;4.03;1.88;;;;;;;16.34;61.15;101032.91;5076116;28;20064;-83
2022/06/17 00:33:32;;;;;;;3.63;1.73;;;;;;;16.16;62.10;101039.88;5075973;28;20131;-84
2022/06/17 00:35:57;;;;;;;4.97;1.70;;;;;;;16.05;62.35;101047.81;5076038;28;20393;-85
2022/06/17 00:38:28;;;;;;;4.05;1.60;;;;;;;15.88;63.45;101045.34;5076021;28;20299;-85
2022/06/17 00:40:56;;;;;;;3.90;1.60;;;;;;;15.81;63.56;101037.72;5075720;28;20527;-84
2022/06/17 00:43:35;;;;;;;4.20;1.73;;;;;;;15.91;62.58;101045.44;5076028;28;20036;-84
2022/06/17 00:46:28;;;;;;;3.78;1.63;;;;;;;15.86;62.33;101022.94;5075864;28;20029;-84
2022/06/17 00:49:26;;;;;;;5.38;1.40;;;;;;;15.77;62.16;101020.31;5076359;28;20092;-85
2022/06/17 00:52:05;;;;;;;2.90;1.30;;;;;;;15.79;62.02;101026.28;5075937;28;20115;-85
2022/06/17 00:54:40;;;;;;;4.07;1.30;;;;;;;15.87;61.25;101032.75;5076761;28;20032;-84
2022/06/17 00:57:23;;;;;;;3.40;1.40;;;;;;;16.11;60.71;101029.13;5075863;28;20037;-84
2022/06/17 01:00:07;;;;;;;4.15;1.40;;;;;;;16.20;60.43;101024.28;5075945;28;20452;-85
2022/06/17 01:02:36;;;;;;;4.03;1.75;;;;;;;16.23;60.47;101027.13;5075614;28;20059;-85
2022/06/17 01:05:03;;;;;;;3.65;1.55;;;;;;;16.30;59.38;101029.28;5075263;28;20032;-85
2022/06/17 01:07:37;;;;;;;3.88;1.55;;;;;;;16.22;59.65;101038.47;5057709;28;20097;-85
2022/06/17 01:10:11;;;;;;;4.95;1.50;;;;;;;16.27;59.72;101024.47;5075498;28;20101;-85
2022/06/17 01:12:42;;;;;;;3.30;1.38;;;;;;;16.26;59.25;101025.63;5075376;28;20026;-85
2022/06/17 01:15:08;;;;;;;3.05;1.33;;;;;;;16.29;58.67;101022.16;5075615;28;20242;-85
2022/06/17 01:17:38;;;;;;;3.22;1.50;;;;;;;16.36;58.30;101019.63;5057294;28;20032;-84
2022/06/17 01:20:07;;;;;;;3.80;1.45;;;;;;;16.57;57.83;101013.09;5074980;28;20039;-84
2022/06/17 01:22:49;;;;;;;3.60;1.10;;;;;;;16.72;57.28;101015.88;5075566;28;20407;-84
2022/06/17 01:25:27;;;;;;;2.88;1.30;;;;;;;16.61;57.63;101011.22;5075086;28;20496;-84
2022/06/17 01:27:56;;;;;;;3.40;1.30;;;;;;;16.52;57.72;101019.66;5057406;28;20539;-86
2022/06/17 01:30:31;;;;;;;3.10;1.48;;;;;;;16.44;57.84;101015.09;5075469;28;20032;-84
2022/06/17 01:33:07;;;;;;;3.55;1.50;;;;;;;16.36;58.18;101016.88;5075304;28;20094;-82
2022/06/17 01:35:45;;;;;;;4.20;1.40;;;;;;;16.30;59.03;101018.28;5057366;28;20573;-83
2022/06/17 01:38:12;;;;;;;4.40;1.60;;;;;;;16.34;59.14;101024.69;5075597;28;20082;-83
2022/06/17 01:40:37;;;;;;;2.80;1.30;;;;;;;16.29;58.73;101024.91;5075654;28;20463;-83
2022/06/17 01:43:08;;;;;;;4.00;1.45;;;;;;;16.25;59.00;101024.03;5076873;28;20039;-83
2022/06/17 01:45:37;;;;;;;4.75;1.60;;;;;;;16.19;59.64;101028.19;5088824;28;20032;-83
2022/06/17 01:48:03;;;;;;;5.38;1.70;;;;;;;16.08;60.33;101024.34;5092456;28;20035;-85
2022/06/17 01:50:30;;;;;;;3.40;1.70;;;;;;;15.84;61.40;101037.00;5092565;28;20029;-83
2022/06/17 01:53:01;;;;;;;4.13;1.60;;;;;;;15.84;61.49;101036.22;5089966;28;20079;-84
2022/06/17 01:55:36;;;;;;;4.18;1.42;;;;;;;15.98;60.87;101039.38;5077943;28;20083;-84
2022/06/17 01:58:04;;;;;;;3.50;1.35;;;;;;;15.97;60.94;101031.50;5075187;28;20074;-85
2022/06/17 02:00:30;;;;;;;4.35;1.67;;;;;;;15.99;60.72;101031.94;5075222;28;20115;-84
2022/06/17 02:03:02;;;;;;;3.35;1.52;;;;;;;16.02;60.88;101037.53;5074480;28;20492;-84
2022/06/17 02:05:30;;;;;;;2.75;1.30;;;;;;;16.04;60.41;101039.91;5074707;28;20116;-83
2022/06/17 02:07:58;;;;;;;3.38;1.48;;;;;;;16.07;60.68;101045.50;5074428;28;20107;-84
2022/06/17 02:10:28;;;;;;;2.97;1.20;;;;;;;16.12;60.17;101048.00;5074679;28;20028;-84
2022/06/17 02:12:55;;;;;;;5.93;1.75;;;;;;;16.02;60.40;101034.78;5074318;28;20391;-85
2022/06/17 02:15:21;;;;;;;12.05;3.97;;;;;;;15.90;60.12;101035.59;5074721;28;20352;-84
2022/06/17 02:17:48;;;;;;;3.47;1.63;;;;;;;15.88;60.44;101037.91;5074770;28;20102;-84
2022/06/17 02:20:16;;;;;;;3.40;1.60;;;;;;;15.89;60.39;101039.50;5074598;28;20040;-85
2022/06/17 02:22:42;;;;;;;3.08;1.38;;;;;;;15.97;60.34;101042.47;5073997;28;20108;-85
2022/06/17 02:25:12;;;;;;;4.32;1.83;;;;;;;15.85;60.64;101038.59;5074495;28;20066;-85
2022/06/17 02:27:40;;;;;;;4.95;1.92;;;;;;;15.93;60.58;101031.38;5074188;28;20036;-84
2022/06/17 02:30:08;;;;;;;3.20;1.52;;;;;;;15.94;60.55;101031.00;5073919;28;20052;-84
2022/06/17 02:32:35;;;;;;;5.68;1.60;;;;;;;15.82;61.37;101033.81;5073032;28;20045;-85
2022/06/17 02:35:05;;;;;;;3.70;1.63;;;;;;;15.69;62.38;101034.19;5074272;28;20462;-85
2022/06/17 02:37:32;;;;;;;3.75;1.52;;;;;;;15.48;63.68;101046.09;5074239;28;20036;-85
2022/06/17 02:40:00;;;;;;;3.95;1.77;;;;;;;15.35;63.77;101042.56;5073927;28;20036;-85
2022/06/17 02:42:32;;;;;;;4.57;1.73;;;;;;;15.32;64.46;101036.97;5074025;28;20036;-84
2022/06/17 02:45:12;;;;;;;3.38;1.80;;;;;;;15.15;65.06;101038.00;5073488;28;20036;-84
2022/06/17 02:47:39;;;;;;;5.30;2.00;;;;;;;15.09;65.76;101047.59;5073686;28;20098;-84
2022/06/17 02:50:06;;;;;;;3.75;1.73;;;;;;;15.12;65.77;101046.91;5073745;28;20024;-83
2022/06/17 02:52:36;;;;;;;3.92;1.52;;;;;;;15.09;65.31;101035.81;5073366;28;20032;-83
2022/06/17 02:55:06;;;;;;;3.97;1.70;;;;;;;15.08;65.58;101043.25;5073242;28;20459;-85
2022/06/17 02:57:31;;;;;;;4.20;1.40;;;;;;;15.06;65.52;101040.03;5073548;28;20141;-87
2022/06/17 03:00:15;;;;;;;3.67;1.52;;;;;;;14.99;65.46;101037.06;5074603;28;20128;-84
2022/06/17 03:02:45;;;;;;;3.35;1.65;;;;;;;14.94;65.73;101046.31;5073869;28;20049;-84
2022/06/17 03:05:35;;;;;;;3.78;1.60;;;;;;;14.88;65.92;101044.94;5074290;28;20058;-84
2022/06/17 03:08:01;;;;;;;6.60;2.15;;;;;;;14.87;65.42;101042.53;5082089;28;20032;-86
2022/06/17 03:10:31;;;;;;;5.55;1.77;;;;;;;14.86;66.01;101035.47;5085196;28;20028;-87
2022/06/17 03:13:13;;;;;;;3.28;1.50;;;;;;;14.79;66.29;101035.25;5078310;28;20080;-87
2022/06/17 03:15:41;;;;;;;6.22;2.03;;;;;;;14.67;67.37;101038.75;5075546;28;20059;-84
2022/06/17 03:18:09;;;;;;;4.15;1.70;;;;;;;14.66;67.42;101037.16;5055399;28;20522;-84
2022/06/17 03:20:35;;;;;;;3.97;1.80;;;;;;;14.63;66.95;101033.16;5073203;28;20490;-84
2022/06/17 03:23:16;;;;;;;3.47;1.60;;;;;;;14.62;66.98;101034.28;5073244;28;20036;-84
2022/06/17 03:25:57;;;;;;;3.72;1.90;;;;;;;14.74;66.89;101038.97;5073132;28;20039;-84
2022/06/17 03:28:28;;;;;;;4.35;1.90;;;;;;;14.70;66.51;101036.13;5073688;28;20029;-84
2022/06/17 03:31:12;;;;;;;4.43;2.00;;;;;;;14.94;66.24;101042.78;5055408;28;20064;-84
2022/06/17 03:33:43;;;;;;;3.13;1.40;;;;;;;14.82;66.47;101046.31;5073260;28;20053;-84
2022/06/17 03:36:16;;;;;;;3.70;1.50;;;;;;;14.84;66.40;101045.97;5072549;28;20077;-83
2022/06/17 03:38:49;;;;;;;3.72;1.65;;;;;;;14.96;65.97;101056.97;5072901;28;20020;-84
2022/06/17 03:41:35;;;;;;;3.92;1.67;;;;;;;14.88;65.52;101049.63;5073214;28;20126;-83
2022/06/17 03:44:08;;;;;;;3.90;1.70;;;;;;;14.74;65.90;101056.22;5072408;28;20064;-81
2022/06/17 03:46:43;;;;;;;3.63;1.60;;;;;;;14.84;65.68;101048.72;5073175;28;20025;-81
2022/06/17 03:49:16;;;;;;;4.18;1.98;;;;;;;14.70;65.55;101049.81;5072377;28;20444;-81
2022/06/17 03:51:43;;;;;;;4.45;1.88;;;;;;;14.90;65.54;101044.59;5072554;28;20035;-81
2022/06/17 03:54:15;;;;;;;3.75;1.63;;;;;;;14.93;65.26;101043.91;5072131;28;20390;-81
2022/06/17 03:56:45;;;;;;;4.25;1.67;;;;;;;14.83;65.67;101042.44;5072175;28;20475;-81
2022/06/17 03:59:17;;;;;;;3.63;1.67;;;;;;;14.75;66.01;101049.59;5072248;28;20451;-81
2022/06/17 04:01:54;;;;;;;3.75;1.55;;;;;;;14.78;66.36;101053.63;5072445;28;20173;-81
2022/06/17 04:04:29;;;;;;;5.68;1.75;;;;;;;14.91;66.30;101054.44;5072021;28;20044;-81
2022/06/17 04:06:57;;;;;;;4.45;1.95;;;;;;;14.99;66.13;101059.81;5072161;28;20033;-81
2022/06/17 04:09:25;;;;;;;4.63;1.98;;;;;;;14.97;65.92;101061.31;5072337;28;20033;-81
2022/06/17 04:12:05;;;;;;;3.88;1.38;;;;;;;15.00;65.88;101063.38;5054182;28;20423;-81
2022/06/17 04:14:54;;;;;;;4.90;2.15;;;;;;;14.97;65.64;101075.03;5072516;28;20032;-81
2022/06/17 04:17:45;;;;;;;3.80;1.80;;;;;;;14.97;65.42;101081.31;5071862;28;20044;-82
2022/06/17 04:20:28;;;;;;;5.10;1.65;;;;;;;15.06;65.32;101078.44;5054201;28;20400;-81
2022/06/17 04:22:58;;;;;;;3.38;1.45;;;;;;;15.19;64.36;101077.31;5071961;28;20112;-80
2022/06/17 04:25:31;;;;;;;3.67;1.67;;;;;;;15.29;63.94;101076.88;5054154;28;20047;-80
2022/06/17 04:28:02;;;;;;;3.08;1.20;;;;;;;15.31;63.24;101065.56;5072077;28;20143;-83
2022/06/17 04:30:32;;;;;;;3.30;1.50;;;;;;;15.19;64.06;101068.28;5072243;28;20486;-83
2022/06/17 04:33:10;;;;;;;4.40;1.67;;;;;;;15.13;64.12;101067.72;5071899;28;20040;-82
2022/06/17 04:35:35;;;;;;;4.88;1.70;;;;;;;15.12;64.35;101071.59;5072247;28;20474;-81
2022/06/17 04:38:01;;;;;;;3.42;1.58;;;;;;;15.07;64.41;101074.56;5071640;28;20036;-82
2022/06/17 04:40:26;;;;;;;4.82;2.03;;;;;;;15.08;64.35;101078.91;5072131;28;20032;-84
2022/06/17 04:42:58;;;;;;;5.50;1.67;;;;;;;15.12;64.75;101087.28;5071622;28;20040;-85
2022/06/17 04:45:26;;;;;;;3.85;1.70;;;;;;;15.21;64.70;101091.47;5072056;28;20248;-82
2022/06/17 04:47:51;;;;;;;3.25;1.50;;;;;;;15.26;64.37;101088.50;5071792;28;20381;-82
2022/06/17 04:50:21;;;;;;;5.22;1.55;;;;;;;15.35;64.34;101080.97;5072280;28;20119;-83
2022/06/17 04:52:49;;;;;;;4.03;1.90;;;;;;;15.50;62.66;101078.69;5053576;28;20070;-83
2022/06/17 04:55:37;;;;;;;4.65;1.80;;;;;;;15.50;62.97;101082.22;5071711;28;20032;-82
2022/06/17 04:58:03;;;;;;;3.35;1.40;;;;;;;15.51;62.70;101083.03;5074814;28;20044;-82
2022/06/17 05:00:28;;;;;;;2.95;1.48;;;;;;;15.84;62.58;101078.22;5075798;28;20024;-85
2022/06/17 05:02:54;;;;;;;4.20;1.63;;;;;;;15.84;61.62;101071.91;5075612;28;20177;-85
2022/06/17 05:05:24;;;;;;;;;;;;;;;15.81;61.40;101076.16;5076804;28;20035;-86
2022/06/17 05:07:53;;;;;;;4.35;1.35;;;;;;;15.84;61.40;101074.66;5076958;28;19915;-84
2022/06/17 05:10:24;;;;;;;3.42;1.38;;;;;;;15.89;61.82;101066.97;5076021;28;20438;-84
2022/06/17 05:12:56;;;;;;;3.88;1.23;;;;;;;16.04;61.78;101072.88;5075963;28;20029;-84
2022/06/17 05:15:21;;;;;;;2.97;1.30;;;;;;;16.23;61.46;101070.28;5075585;28;20032;-85
2022/06/17 05:17:47;;;;;;;3.55;1.50;;;;;;;16.32;61.12;101072.91;5075168;28;20059;-84
2022/06/17 05:20:19;;;;;;;3.42;1.42;;;;;;;16.22;61.41;101071.44;5075536;28;20032;-82
2022/06/17 05:23:06;;;;;;;5.07;1.40;;;;;;;16.46;61.05;101070.53;5075258;28;20113;-85
2022/06/17 05:25:34;;;;;;;3.20;1.40;;;;;;;16.80;59.87;101060.88;5075275;28;20352;-84
2022/06/17 05:28:00;;;;;;;2.90;1.30;;;;;;;16.99;59.54;101057.44;5075503;28;20036;-84
2022/06/17 05:30:31;;;;;;;4.05;1.38;;;;;;;17.01;59.02;101055.91;5076186;28;20439;-84
2022/06/17 05:32:57;;;;;;;4.57;1.60;;;;;;;17.11;58.79;101051.81;5075564;28;20193;-84
2022/06/17 05:35:22;;;;;;;3.85;1.73;;;;;;;17.20;58.68;101051.63;5076482;28;20127;-84
2022/06/17 05:37:48;;;;;;;;;;;;;;;17.41;58.16;101054.88;5077238;28;20041;-84
2022/06/17 05:40:15;;;;;;;3.38;1.35;;;;;;;17.48;58.97;101046.00;5076737;28;20363;-85
2022/06/17 05:42:42;;;;;;;3.78;1.40;;;;;;;17.61;57.98;101052.97;5076665;28;20122;-84
2022/06/17 05:45:12;;;;;;;3.08;1.30;;;;;;;17.81;57.24;101051.91;5076433;28;20028;-85
2022/06/17 05:47:38;;;;;;;2.65;1.00;;;;;;;17.87;56.81;101055.16;5077295;28;20051;-85
2022/06/17 05:50:03;;;;;;;;;;;;;;;17.85;56.27;101060.22;5083982;28;20100;-85
2022/06/17 05:52:28;;;;;;;4.55;1.92;;;;;;;17.77;55.93;101061.22;5078211;28;19912;-85
2022/06/17 05:55:01;;;;;;;;;;;;;;;17.91;56.49;101054.06;5078496;28;20090;-85
2022/06/17 05:57:26;;;;;;;2.50;1.10;;;;;;;17.94;56.54;101047.03;5077526;28;19915;-86
2022/06/17 05:59:51;;;;;;;;;;;;;;;18.19;54.88;101047.56;5079633;28;20029;-86
2022/06/17 06:02:17;;;;;;;4.93;1.33;;;;;;;18.29;54.69;101041.44;5075993;28;19995;-85
2022/06/17 06:04:42;;;;;;;;;;;;;;;18.27;55.15;101047.31;5080627;28;20267;-86
2022/06/17 06:07:07;;;;;;;3.70;1.27;;;;;;;18.41;55.00;101055.06;5078365;28;19908;-85
2022/06/17 06:09:33;;;;;;;;;;;;;;;18.45;55.48;101049.59;5061003;28;20278;-84
2022/06/17 06:11:58;;;;;;;2.30;1.00;;;;;;;18.50;55.33;101063.13;5061514;28;19930;-86
2022/06/17 06:14:23;;;;;;;;;;;;;;;18.44;54.89;101065.34;5085483;28;20395;-85
2022/06/17 06:16:49;;;;;;;4.05;1.48;;;;;;;18.60;54.03;101062.50;5079996;28;20439;-85
2022/06/17 06:19:14;;;;;;;;;;;;;;;18.77;53.18;101067.56;5077178;28;20082;-83
2022/06/17 06:21:39;;;;;;;2.40;1.20;;;;;;;18.63;53.81;101067.31;5058001;28;19998;-84
2022/06/17 06:24:05;;;;;;;;;;;;;;;18.85;53.42;101063.00;5075772;28;20115;-84
2022/06/17 06:26:30;;;;;;;2.55;1.05;;;;;;;19.02;53.00;101068.03;5073750;28;19912;-83
2022/06/17 06:28:56;;;;;;;;;;;;;;;19.05;53.36;101074.75;5073864;28;20107;-82
2022/06/17 06:31:24;;;;;;;2.83;1.20;;;;;;;19.18;52.21;101059.59;5073484;28;19912;-82
2022/06/17 06:33:51;;;;;;;2.75;0.93;;;;;;;19.07;53.24;101053.09;5073926;28;20028;-84
2022/06/17 06:36:16;;;;;;;3.00;1.40;;;;;;;19.09;53.21;101048.81;5073375;28;20486;-83
2022/06/17 06:38:42;;;;;;;3.35;1.40;;;;;;;18.82;52.99;101052.69;5073968;28;20024;-83
2022/06/17 06:41:07;;;;;;;;;;;;;;;18.92;53.87;101052.88;5073701;28;20029;-83
2022/06/17 06:43:34;;;;;;;4.32;1.40;;;;;;;19.05;53.23;101058.19;5073484;28;19927;-84
2022/06/17 06:46:05;;;;;;;3.60;1.20;;;;;;;19.09;53.87;101056.28;5038795;28;20036;-83
2022/06/17 06:48:30;;;;;;;4.13;1.30;;;;;;;19.03;53.53;101057.78;5073428;28;20494;-83
2022/06/17 06:50:56;;;;;;;4.38;1.20;;;;;;;19.19;52.70;101066.72;5073608;28;20025;-83
2022/06/17 06:53:21;;;;;;;;;;;;;;;19.36;51.89;101074.47;5056288;28;20029;-83
2022/06/17 06:55:48;;;;;;;2.43;0.90;;;;;;;20.25;49.83;101061.88;5073294;28;19966;-83
2022/06/17 06:58:19;;;;;;;4.90;1.50;;;;;;;20.72;48.76;101064.00;5073588;28;20031;-84
2022/06/17 07:00:54;;;;;;;3.22;1.40;;;;;;;21.35;47.26;101066.94;5073307;28;20451;-85
2022/06/17 07:03:20;;;;;;;2.78;1.00;;;;;;;21.82;45.55;101060.47;5073657;28;20029;-84
2022/06/17 07:05:52;;;;;;;2.70;1.20;;;;;;;21.64;46.35;101057.59;5073416;28;20463;-84
2022/06/17 07:08:20;;;;;;;2.80;1.13;;;;;;;21.82;45.05;101052.94;5073717;28;20032;-86
2022/06/17 07:10:47;;;;;;;2.50;0.93;;;;;;;22.00;44.85;101055.00;5055989;28;20024;-84
2022/06/17 07:13:12;;;;;;;2.95;1.17;;;;;;;22.01;44.23;101057.41;5073732;28;20078;-86
2022/06/17 07:15:41;;;;;;;3.97;1.00;;;;;;;22.27;43.61;101056.34;5074165;28;20049;-86
2022/06/17 07:18:21;;;;;;;2.63;1.08;;;;;;;22.47;43.53;101052.03;5076656;28;20044;-85
2022/06/17 07:20:53;;;;;;;2.25;1.05;;;;;;;22.60;44.05;101052.47;5059672;28;20444;-86
2022/06/17 07:23:24;;;;;;;2.08;0.85;;;;;;;22.45;44.16;101051.63;5067713;28;20032;-87
2022/06/17 07:25:50;;;;;;;3.95;1.20;;;;;;;22.42;44.00;101044.09;5084011;28;20060;-88
2022/06/17 07:28:20;;;;;;;2.58;1.00;;;;;;;21.89;45.28;101050.22;5083144;28;20028;-85
2022/06/17 07:30:48;;;;;;;3.20;1.27;;;;;;;21.74;45.95;101051.34;5063274;28;20033;-89
2022/06/17 07:33:15;;;;;;;2.33;0.90;;;;;;;21.92;45.81;101055.00;5078174;28;20121;-90
2022/06/17 07:36:01;;;;;;;2.95;1.13;;;;;;;21.51;45.37;101050.81;5075662;28;20455;-86
2022/06/17 07:41:16;;;;;;;2.80;0.95;;;;;;;21.46;45.10;101051.97;5090010;28;20505;-88
2022/06/17 07:43:42;;;;;;;2.80;1.08;;;;;;;21.19;45.58;101053.34;5082105;28;20067;-88
2022/06/17 07:46:08;;;;;;;2.92;1.10;;;;;;;21.18;45.54;101058.09;5076498;28;20036;-88
2022/06/17 07:48:34;;;;;;;3.20;1.10;;;;;;;21.56;44.31;101050.44;5075444;28;20032;-90
2022/06/17 07:51:00;;;;;;;2.53;0.93;;;;;;;21.41;44.33;101054.31;5075367;28;20028;-88
2022/06/17 07:53:28;;;;;;;2.70;1.20;;;;;;;21.47;43.69;101044.44;5076726;28;20459;-87
2022/06/17 07:55:53;;;;;;;2.75;1.02;;;;;;;21.57;43.43;101049.25;5057202;28;20063;-91
2022/06/17 07:58:19;;;;;;;2.65;1.30;;;;;;;21.67;44.33;101043.00;5075415;28;20111;-91
2022/06/17 08:00:48;;;;;;;2.22;0.77;;;;;;;21.86;43.28;101042.69;5075566;28;20032;-90
2022/06/17 08:03:14;;;;;;;2.85;1.13;;;;;;;;;;5076254;28;20037;-90
2022/06/17 08:05:43;;;;;;;3.22;0.98;;;;;;;21.84;42.84;101047.06;5077775;28;20054;-91
2022/06/17 08:08:09;;;;;;;3.80;1.10;;;;;;;21.92;42.53;101055.00;5074946;28;20058;-89
2022/06/17 08:10:36;;;;;;;3.20;1.58;;;;;;;21.77;43.23;101049.75;5075898;28;20028;-89
2022/06/17 08:13:04;;;;;;;2.83;1.10;;;;;;;21.78;42.93;101052.16;5058706;28;20037;-91
2022/06/17 08:15:30;;;;;;;2.58;1.20;;;;;;;21.95;43.06;101039.56;5074456;28;20032;-89
2022/06/17 08:17:56;;;;;;;7.47;1.15;;;;;;;21.88;42.68;101039.53;5040332;28;20120;-91
2022/06/17 08:20:25;;;;;;;2.38;1.05;;;;;;;21.72;42.43;101047.38;5072866;28;20159;-88
2022/06/17 08:22:52;;;;;;;3.53;1.10;;;;;;;21.83;43.24;101032.38;5072921;28;20040;-89
2022/06/17 08:25:18;;;;;;;2.08;1.00;;;;;;;21.90;43.29;101035.19;5073174;28;20450;-89
2022/06/17 08:27:51;;;;;;;2.78;1.20;;;;;;;22.05;42.92;101038.06;5073514;28;20451;-88
2022/06/17 08:30:20;;;;;;;2.35;1.00;;;;;;;22.28;42.23;101034.94;5075357;28;20051;-90
2022/06/17 08:32:46;;;;;;;2.67;1.13;;;;;;;22.19;42.13;101033.34;5079082;28;20063;-86
2022/06/17 08:35:18;;;;;;;2.90;1.20;;;;;;;22.34;41.37;101028.63;5079942;28;20058;-90
2022/06/17 08:37:46;;;;;;;2.03;0.90;;;;;;;22.39;41.64;101036.56;5078190;28;20483;-90
2022/06/17 08:40:26;;;;;;;2.80;1.02;;;;;;;22.24;42.03;101032.16;5077020;28;20067;-91
2022/06/17 08:43:08;;;;;;;3.92;0.90;;;;;;;22.44;42.06;101019.53;5079758;28;20115;-91
2022/06/17 08:45:45;;;;;;;2.83;1.23;;;;;;;22.51;40.98;101027.88;5076941;28;20024;-86
2022/06/17 08:48:27;;;;;;;3.63;1.10;;;;;;;22.57;40.71;101028.28;5077542;28;20044;-90
2022/06/17 08:51:06;;;;;;;3.10;1.00;;;;;;;22.60;40.77;101024.72;5076425;28;20412;-88
2022/06/17 08:53:47;;;;;;;2.83;1.10;;;;;;;22.54;42.14;101029.06;5077090;28;20082;-91
2022/06/17 08:56:33;;;;;;;2.88;1.15;;;;;;;22.34;42.49;101025.88;5077133;28;20126;-92
2022/06/17 08:59:28;;;;;;;2.92;1.40;;;;;;;22.33;42.37;101026.22;5078624;28;20109;-91
2022/06/17 09:02:06;;;;;;;2.50;1.10;;;;;;;22.42;42.33;101013.59;5080116;28;20032;-90
2022/06/17 09:05:10;;;;;;;2.67;1.00;;;;;;;22.68;41.96;101017.19;5078245;28;20036;-90
2022/06/17 09:08:04;;;;;;;2.33;1.10;;;;;;;22.66;42.49;101014.78;5077809;28;20109;-84
2022/06/17 09:10:35;;;;;;;3.15;1.33;;;;;;;22.59;41.26;101016.78;5078677;28;20025;-86
2022/06/17 09:13:17;;;;;;;3.65;1.00;;;;;;;22.67;41.91;101015.56;5076889;28;20379;-89
2022/06/17 09:15:56;;;;;;;2.88;1.15;;;;;;;22.85;41.70;101016.44;5063566;28;20029;-88
2022/06/17 09:18:27;;;;;;;2.60;1.30;;;;;;;22.91;42.05;101009.28;5079942;28;20024;-90
2022/06/17 09:21:01;;;;;;;2.60;1.30;;;;;;;23.13;40.97;101000.94;5078648;28;20043;-88
2022/06/17 09:23:33;;;;;;;2.63;1.00;;;;;;;22.93;41.05;101004.13;5076322;28;20039;-90
2022/06/17 09:26:01;;;;;;;3.20;1.13;;;;;;;22.79;42.05;100993.00;5077991;28;20056;-87
2022/06/17 09:28:34;;;;;;;2.85;1.10;;;;;;;23.37;40.61;100989.78;5079299;28;20029;-90
2022/06/17 09:31:05;;;;;;;5.03;1.30;;;;;;;23.31;40.95;100991.38;5084992;28;20055;-86
2022/06/17 09:33:40;;;;;;;2.35;1.00;;;;;;;23.17;41.09;100990.59;5084163;28;20072;-90
2022/06/17 09:36:28;;;;;;;3.75;1.35;;;;;;;23.32;40.67;100992.16;5070398;28;20446;-87
2022/06/17 09:39:10;;;;;;;3.33;0.88;;;;;;;23.58;40.48;100997.28;5087570;28;20135;-91
2022/06/17 09:41:50;;;;;;;2.55;1.05;;;;;;;23.53;40.06;100986.56;5076609;28;20122;-88
2022/06/17 09:44:30;;;;;;;3.15;1.02;;;;;;;23.53;39.76;100991.34;5077143;28;20040;-83
2022/06/17 09:47:15;;;;;;;3.00;1.20;;;;;;;23.64;39.93;100990.13;5075387;28;20420;-87
2022/06/17 09:49:49;;;;;;;2.72;1.08;;;;;;;23.48;39.62;100992.53;5075285;28;20039;-84
2022/06/17 09:52:18;;;;;;;2.45;1.00;;;;;;;23.38;40.66;100990.59;5075103;28;20056;-89
2022/06/17 09:55:20;;;;;;;2.65;1.20;;;;;;;23.62;38.52;100992.50;5078037;28;20037;-90
2022/06/17 09:58:02;;;;;;;2.65;1.05;;;;;;;23.89;39.02;100998.38;5035704;28;20056;-90
2022/06/17 10:00:36;;;;;;;3.00;1.00;;;;;;;24.05;38.51;100992.34;5077955;28;20492;-90
2022/06/17 10:03:28;;;;;;;2.53;1.00;;;;;;;24.05;38.00;100989.56;5076393;28;20029;-81
2022/06/17 10:06:05;;;;;;;4.38;1.30;;;;;;;23.81;39.32;100987.66;5074324;28;20103;-80
2022/06/17 10:08:54;;;;;;;2.63;0.85;;;;;;;24.13;38.22;100993.88;5056676;28;20490;-81
2022/06/17 10:11:25;;;;;;;4.82;1.23;;;;;;;23.81;39.73;100979.31;5056285;28;20028;-79
2022/06/17 10:14:23;;;;;;;1.98;0.90;;;;;;;23.91;40.01;100978.50;5074036;28;20025;-80
2022/06/17 10:19:52;;;;;;;3.47;1.13;;;;;;;24.40;39.83;100987.78;5074262;28;20102;-80
2022/06/17 10:22:27;;;;;;;3.65;1.02;;;;;;;24.44;38.69;100969.06;5074133;28;20033;-80
2022/06/17 10:25:19;;;;;;;2.13;1.00;;;;;;;24.49;38.11;100960.25;5074460;28;20028;-79
2022/06/17 10:28:03;;;;;;;2.55;1.23;;;;;;;24.51;36.95;100966.22;5073951;28;20028;-79
2022/06/17 10:30:41;;;;;;;2.13;0.90;;;;;;;24.38;37.48;100968.72;5074163;28;20025;-80
2022/06/17 10:33:10;;;;;;;3.28;1.20;;;;;;;24.41;37.90;100975.44;5073323;28;20102;-80
2022/06/17 10:35:38;;;;;;;2.20;0.93;;;;;;;24.59;38.35;100968.53;5073326;28;20036;-81
2022/06/17 10:38:07;;;;;;;2.53;1.08;;;;;;;24.58;38.45;100978.09;5073810;28;20429;-81
2022/06/17 10:40:36;;;;;;;2.40;1.20;;;;;;;24.59;37.04;100978.88;5073881;28;20047;-79
2022/06/17 10:43:06;;;;;;;1.45;0.73;;;;;;;24.69;36.06;100971.63;5073496;28;20094;-81
2022/06/17 10:45:33;;;;;;;2.53;0.90;;;;;;;24.58;34.79;100980.09;5079737;28;20029;-91
2022/06/17 10:48:25;;;;;;;3.10;1.20;;;;;;;24.59;35.25;100978.88;5136455;22;20060;-89
2022/06/17 10:50:51;;;;;;;1.77;0.80;;;;;;;24.70;36.46;100968.47;5180434;22;20052;-91
2022/06/17 10:53:31;;;;;;;1.98;0.70;;;;;;;24.94;35.67;100960.28;5079792;28;20095;-89
2022/06/17 10:56:03;;;;;;;2.40;0.82;;;;;;;24.97;35.48;100954.66;5080635;28;20024;-89
2022/06/17 10:58:33;;;;;;;2.17;1.10;;;;;;;24.97;35.60;100971.38;5060989;28;20403;-88
2022/06/17 11:01:05;;;;;;;2.13;1.00;;;;;;;24.95;34.53;100973.00;5076879;28;20047;-89
2022/06/17 11:03:39;;;;;;;1.85;0.80;;;;;;;25.10;34.10;100966.13;5080016;28;20132;-91
2022/06/17 11:06:22;;;;;;;1.90;0.98;;;;;;;24.83;35.50;100969.53;5078716;28;20094;-90
2022/06/17 11:09:00;;;;;;;1.73;0.80;;;;;;;24.85;34.56;100957.97;5082268;28;20028;-88
2022/06/17 11:14:23;;;;;;;4.50;1.40;;;;;;;25.15;35.61;100976.81;5086181;28;20032;-90
2022/06/17 11:16:49;;;;;;;2.22;0.93;;;;;;;25.06;35.41;100968.16;5084089;28;20445;-92
2022/06/17 11:19:18;;;;;;;2.60;0.90;;;;;;;25.07;35.07;100966.97;5084736;28;20069;-89
2022/06/17 11:21:48;;;;;;;2.08;0.80;;;;;;;25.29;34.89;100968.31;5083845;28;20024;-92
2022/06/17 11:24:27;;;;;;;3.17;1.27;;;;;;;25.83;34.08;100960.13;5090358;28;20433;-92
2022/06/17 11:27:14;;;;;;;3.13;1.25;;;;;;;25.78;34.14;100941.06;5087336;28;20020;-94
2022/06/17 11:29:44;;;;;;;2.05;0.90;;;;;;;25.71;33.91;100941.97;5083320;28;20036;-93
2022/06/17 11:32:32;;;;;;;1.73;0.80;;;;;;;25.66;34.04;100942.38;5087440;28;20149;-94
2022/06/17 11:35:00;;;;;;;1.70;0.75;;;;;;;25.89;34.06;100941.72;5085773;28;20052;-94
2022/06/17 11:37:33;;;;;;;1.85;0.77;;;;;;;25.98;33.72;100944.75;5070625;28;20013;-89
2022/06/17 11:40:23;;;;;;;3.35;1.20;;;;;;;25.66;32.72;100947.94;5080447;28;20029;-89
2022/06/17 11:43:05;;;;;;;2.55;1.08;;;;;;;25.51;34.02;100943.75;5077837;28;20052;-90
2022/06/17 11:45:35;;;;;;;2.30;0.93;;;;;;;25.42;33.30;100927.53;5082664;28;20040;-91
2022/06/17 11:48:12;;;;;;;2.47;1.20;;;;;;;25.50;33.62;100931.81;5071939;28;20123;-90
2022/06/17 11:50:40;;;;;;;2.35;0.80;;;;;;;25.68;33.36;100931.63;5088913;28;20045;-88
2022/06/17 11:53:14;;;;;;;2.47;1.20;;;;;;;26.06;33.07;100923.94;5094421;28;20060;-86
2022/06/17 11:55:46;;;;;;;1.08;0.65;;;;;;;25.72;32.37;100920.44;5077117;28;20029;-90
2022/06/17 11:58:13;;;;;;;1.98;0.80;;;;;;;26.00;33.19;100919.22;5082487;28;20090;-92
2022/06/17 12:00:45;;;;;;;1.30;0.60;;;;;;;26.28;31.88;100907.63;5084377;28;20070;-89